Time;durP1;ratioP1;P1;durP2;ratioP2;P2;SDS_P1;SDS_P2;PMS_P1;PMS_P2;Temp;Humidity;BMP_temperature;BMP_pressure;BME280_temperature;BME280_humidity;BME280_pressure;Samples;Min_cycle;Max_cycle;Signal;HPM_P1;HPM_P2
2023/08/19 00:00:26;;;;;;;19.00;11.60;;;;;;;26.19;55.53;100703.67;108040;1258;60392;-67
2023/08/19 00:02:55;;;;;;;15.80;11.50;;;;;;;26.12;55.78;100703.70;107979;1253;60322;-67
2023/08/19 00:05:24;;;;;;;20.60;11.40;;;;;;;26.13;55.85;100700.77;108031;1253;72547;-68
2023/08/19 00:07:51;;;;;;;15.20;11.80;;;;;;;26.17;55.79;100697.36;107979;1253;70334;-67
2023/08/19 00:10:18;;;;;;;16.20;11.70;;;;;;;26.16;55.91;100692.52;108054;1253;72080;-68
2023/08/19 00:12:46;;;;;;;15.80;12.00;;;;;;;26.12;55.99;100693.64;107933;1256;60704;-67
2023/08/19 00:15:13;;;;;;;13.50;11.00;;;;;;;26.15;56.00;100689.07;107937;1253;60344;-67
2023/08/19 00:17:41;;;;;;;16.20;11.60;;;;;;;26.09;56.20;100690.67;108012;1253;73722;-67
2023/08/19 00:20:10;;;;;;;16.40;11.00;;;;;;;26.21;55.89;100693.69;108052;1259;69051;-66
2023/08/19 00:22:38;;;;;;;15.40;10.90;;;;;;;26.27;55.62;100693.32;107995;1253;74866;-66
2023/08/19 00:25:05;;;;;;;17.80;10.40;;;;;;;26.35;55.36;100691.88;107934;1256;60945;-67
2023/08/19 00:27:33;;;;;;;15.50;11.20;;;;;;;26.33;55.27;100692.04;107862;1259;60430;-67
2023/08/19 00:30:00;;;;;;;12.90;10.20;;;;;;;26.18;55.65;100683.90;107852;1254;75367;-67
2023/08/19 00:32:29;;;;;;;13.70;11.00;;;;;;;26.22;55.65;100683.05;107829;1254;69507;-67
2023/08/19 00:34:57;;;;;;;14.70;10.70;;;;;;;26.32;55.32;100680.95;107675;1256;72718;-67
2023/08/19 00:37:24;;;;;;;15.40;11.70;;;;;;;26.28;55.31;100677.80;107668;1254;61614;-66
2023/08/19 00:39:52;;;;;;;15.00;11.50;;;;;;;26.21;55.53;100675.02;107929;1254;60331;-66
2023/08/19 00:42:19;;;;;;;17.80;11.90;;;;;;;26.38;55.17;100670.16;107874;1255;72979;-67
2023/08/19 00:44:47;;;;;;;15.70;11.30;;;;;;;26.20;55.60;100667.48;107863;1256;68841;-68
2023/08/19 00:47:14;;;;;;;17.10;10.60;;;;;;;26.02;56.21;100669.08;107949;1257;73770;-67
2023/08/19 00:49:42;;;;;;;18.80;11.10;;;;;;;26.05;56.30;100667.80;107993;1257;60447;-68
2023/08/19 00:52:09;;;;;;;14.60;11.60;;;;;;;25.96;56.58;100668.00;107911;1255;60298;-66
2023/08/19 00:54:37;;;;;;;14.00;10.50;;;;;;;25.97;56.34;100669.28;107882;1256;73918;-66
2023/08/19 00:57:04;;;;;;;17.90;12.40;;;;;;;25.84;56.66;100669.98;108013;1258;69188;-67
2023/08/19 00:59:33;;;;;;;18.50;11.50;;;;;;;25.83;56.87;100665.44;108504;1256;71757;-66
2023/08/19 01:02:00;;;;;;;14.10;10.40;;;;;;;25.89;56.79;100667.55;108109;1256;60541;-65
2023/08/19 01:04:28;;;;;;;18.40;11.60;;;;;;;25.92;56.70;100667.41;108287;1259;59437;-67
2023/08/19 01:07:12;;;;;;;17.00;11.20;;;;;;;25.95;56.72;100664.31;107970;1260;72648;-66
2023/08/19 01:09:42;;;;;;;18.10;11.50;;;;;;;25.96;56.63;100666.02;107954;1257;68839;-66
2023/08/19 01:12:15;;;;;;;14.20;10.60;;;;;;;26.00;56.49;100661.16;108005;1256;72067;-68
2023/08/19 01:15:04;;;;;;;15.20;11.40;;;;;;;26.05;56.38;100664.45;107875;1260;61723;-65
2023/08/19 01:17:31;;;;;;;15.10;11.70;;;;;;;25.94;56.76;100662.79;107982;1256;60239;-67
2023/08/19 01:20:00;;;;;;;14.60;11.60;;;;;;;25.96;56.69;100663.15;107923;1254;72609;-67
2023/08/19 01:22:56;;;;;;;17.80;11.70;;;;;;;25.97;56.79;100662.84;107744;1254;69736;-66
2023/08/19 01:25:24;;;;;;;14.20;11.70;;;;;;;25.92;56.91;100665.31;107800;1253;71522;-65
2023/08/19 01:27:53;;;;;;;17.30;11.70;;;;;;;25.84;57.13;100667.29;107992;1253;61704;-66
2023/08/19 01:30:21;;;;;;;17.30;12.20;;;;;;;25.80;57.27;100665.88;108079;1253;60235;-67
2023/08/19 01:32:48;;;;;;;16.90;12.30;;;;;;;25.81;57.26;100666.28;108002;1258;73104;-65
2023/08/19 01:35:17;;;;;;;16.20;11.60;;;;;;;25.86;57.23;100666.52;107963;1253;69665;-66
2023/08/19 01:37:56;;;;;;;15.90;11.70;;;;;;;25.82;57.28;100663.19;107766;1254;71474;-66
2023/08/19 01:40:23;;;;;;;16.50;11.80;;;;;;;25.78;57.46;100664.80;108082;1254;60489;-67
2023/08/19 01:42:51;;;;;;;15.70;12.50;;;;;;;25.85;57.37;100666.69;107955;1253;60178;-67
2023/08/19 01:45:18;;;;;;;16.50;11.90;;;;;;;25.74;57.60;100662.59;107865;1261;72542;-67
2023/08/19 01:47:45;;;;;;;23.70;13.10;;;;;;;25.65;57.88;100663.27;107916;1254;69544;-68
2023/08/19 01:50:13;;;;;;;19.20;13.00;;;;;;;25.79;57.68;100658.73;107858;1255;72767;-66
2023/08/19 01:52:40;;;;;;;18.40;12.30;;;;;;;25.84;57.45;100657.20;107896;1260;61882;-66
2023/08/19 01:55:09;;;;;;;12.80;11.00;;;;;;;25.94;57.28;100660.83;107893;1253;60231;-67
2023/08/19 01:57:36;;;;;;;14.90;11.60;;;;;;;25.88;57.22;100662.21;107964;1258;74334;-66
2023/08/19 02:00:06;;;;;;;17.90;11.40;;;;;;;25.93;57.09;100664.32;108021;1254;69331;-67
2023/08/19 02:02:43;;;;;;;13.30;10.70;;;;;;;25.77;57.40;100669.04;108180;1254;71477;-67
2023/08/19 02:05:14;;;;;;;15.40;11.60;;;;;;;25.71;57.52;100670.25;107978;1254;62592;-66
2023/08/19 02:07:42;;;;;;;;;;;;;;;25.63;57.73;100663.29;107969;1257;60240;-66
2023/08/19 02:10:12;;;;;;;12.80;11.40;;;;;;;25.55;57.92;100664.88;107950;1253;73930;-67
2023/08/19 02:12:39;;;;;;;15.70;11.40;;;;;;;25.51;57.91;100662.61;107946;1253;70235;-67
2023/08/19 02:15:07;;;;;;;17.60;12.30;;;;;;;25.32;58.34;100662.49;107937;1260;72612;-66
2023/08/19 02:17:34;;;;;;;21.50;12.70;;;;;;;25.38;58.38;100667.05;108150;1254;61573;-66
2023/08/19 02:20:03;;;;;;;19.90;12.40;;;;;;;25.30;58.63;100669.84;107990;1254;60297;-67
2023/08/19 02:22:30;;;;;;;16.30;12.10;;;;;;;25.31;58.57;100667.09;108081;1254;73067;-67
2023/08/19 02:24:58;;;;;;;16.90;12.20;;;;;;;25.32;58.60;100669.52;108035;1258;69176;-67
2023/08/19 02:27:25;;;;;;;15.30;11.30;;;;;;;25.34;58.48;100671.08;107984;1259;73294;-66
2023/08/19 02:29:53;;;;;;;14.60;12.40;;;;;;;25.29;58.65;100671.01;107966;1259;60401;-66
2023/08/19 02:32:21;;;;;;;14.50;12.50;;;;;;;25.30;58.64;100673.24;107950;1259;60430;-66
2023/08/19 02:34:50;;;;;;;15.40;11.00;;;;;;;25.30;58.73;100669.50;107997;1258;71582;-66
2023/08/19 02:37:17;;;;;;;14.20;12.70;;;;;;;25.33;58.70;100670.81;107933;1258;69928;-66
2023/08/19 02:39:45;;;;;;;15.10;12.80;;;;;;;25.31;58.58;100673.67;107992;1257;70902;-66
2023/08/19 02:42:15;;;;;;;16.00;12.00;;;;;;;25.28;58.73;100674.20;107876;1261;61639;-65
2023/08/19 02:44:43;;;;;;;19.10;13.00;;;;;;;25.28;58.70;100676.65;107982;1253;60065;-65
2023/08/19 02:47:11;;;;;;;15.30;11.60;;;;;;;25.24;58.77;100679.42;108010;1255;72577;-66
2023/08/19 02:51:53;;;;;;;17.60;13.40;;;;;;;23.67;64.37;100690.05;105067;1290;599643;-67
2023/08/19 02:54:20;;;;;;;15.80;13.50;;;;;;;24.21;62.29;100686.74;107912;1258;61145;-66
2023/08/19 02:56:48;;;;;;;23.10;13.80;;;;;;;24.02;62.88;100689.42;107923;1260;60208;-66
2023/08/19 02:59:15;;;;;;;24.60;12.60;;;;;;;23.99;63.11;100687.58;107924;1254;71877;-65
2023/08/19 03:01:43;;;;;;;19.60;13.20;;;;;;;24.05;63.07;100688.81;107857;1258;72596;-66
2023/08/19 03:04:10;;;;;;;19.40;14.00;;;;;;;24.07;63.29;100691.69;107898;1261;72945;-66
2023/08/19 03:06:38;;;;;;;18.70;12.70;;;;;;;24.21;62.80;100692.12;107980;1254;220717;-67
2023/08/19 03:09:05;;;;;;;15.00;12.50;;;;;;;24.27;62.76;100688.42;108154;1257;59237;-67
2023/08/19 03:11:33;;;;;;;15.00;12.00;;;;;;;24.30;62.84;100693.19;107858;1254;71916;-67
2023/08/19 03:14:01;;;;;;;14.00;12.20;;;;;;;24.38;62.52;100687.31;108169;1254;69964;-68
2023/08/19 03:16:28;;;;;;;16.50;13.40;;;;;;;24.43;62.44;100689.14;108100;1254;72436;-67
2023/08/19 03:18:56;;;;;;;13.30;11.80;;;;;;;24.43;62.62;100681.21;108068;1253;62151;-66
2023/08/19 03:21:23;;;;;;;19.60;14.80;;;;;;;24.52;62.44;100687.39;108084;1254;59593;-67
2023/08/19 03:23:51;;;;;;;19.80;13.50;;;;;;;24.64;62.27;100685.04;108400;1248;73223;-67
2023/08/19 03:26:18;;;;;;;15.60;13.20;;;;;;;24.86;62.00;100685.23;108419;1248;68653;-67
2023/08/19 03:28:46;;;;;;;15.00;12.50;;;;;;;25.05;61.79;100681.95;108304;1254;73422;-65
2023/08/19 03:31:14;;;;;;;16.80;12.20;;;;;;;25.31;61.13;100682.67;108559;1248;60444;-66
2023/08/19 03:33:42;;;;;;;18.50;12.30;;;;;;;25.66;60.32;100682.75;108469;1248;60139;-67
2023/08/19 03:36:10;;;;;;;18.90;12.30;;;;;;;26.00;59.48;100682.35;108500;1248;72764;-67
2023/08/19 03:38:38;;;;;;;16.00;11.30;;;;;;;26.28;58.68;100683.56;108570;1248;70534;-66
2023/08/19 03:41:05;;;;;;;13.50;11.40;;;;;;;26.48;58.01;100676.90;108435;1250;71884;-66
2023/08/19 03:43:33;;;;;;;15.20;10.20;;;;;;;26.79;57.30;100678.32;108519;1248;61779;-66
2023/08/19 03:46:01;;;;;;;12.80;10.10;;;;;;;27.16;56.41;100681.77;108351;1249;60166;-66
2023/08/19 03:48:28;;;;;;;13.60;10.90;;;;;;;27.58;55.26;100687.18;108378;1248;72234;-67
2023/08/19 03:50:56;;;;;;;12.90;9.60;;;;;;;27.92;54.21;100684.81;108335;1251;68818;-67
2023/08/19 03:53:23;;;;;;;12.40;10.00;;;;;;;28.16;53.28;100683.29;108244;1251;71820;-67
2023/08/19 03:55:51;;;;;;;14.70;9.50;;;;;;;28.41;52.83;100687.90;108260;1251;61725;-67
2023/08/19 03:58:18;;;;;;;14.30;9.70;;;;;;;28.70;52.28;100680.78;108390;1254;59628;-66
2023/08/19 04:00:47;;;;;;;19.60;9.90;;;;;;;29.05;51.16;100678.75;108319;1254;72233;-68
2023/08/19 04:03:19;;;;;;;11.90;7.60;;;;;;;29.41;50.31;100684.16;108336;1251;71645;-68
2023/08/19 04:05:47;;;;;;;13.30;8.90;;;;;;;29.68;49.48;100682.48;108384;1251;72618;-68
2023/08/19 04:08:14;;;;;;;11.80;9.20;;;;;;;30.09;48.83;100675.68;108327;1251;61664;-69
2023/08/19 04:10:41;;;;;;;9.30;7.30;;;;;;;30.34;48.13;100676.91;108313;1251;59380;-67
2023/08/19 04:13:09;;;;;;;9.60;8.50;;;;;;;30.56;47.41;100677.94;108369;1250;71538;-67
2023/08/19 04:15:37;;;;;;;10.80;8.30;;;;;;;30.80;47.13;100678.86;108406;1252;69188;-67
2023/08/19 04:18:05;;;;;;;13.60;7.90;;;;;;;31.16;46.19;100679.68;108433;1251;73603;-67
2023/08/19 04:20:37;;;;;;;10.10;7.90;;;;;;;31.79;44.79;100681.23;108273;1251;60838;-67
2023/08/19 04:23:05;;;;;;;13.20;8.10;;;;;;;32.07;44.07;100685.45;108319;1250;59229;-67
2023/08/19 04:25:32;;;;;;;10.60;7.30;;;;;;;32.21;43.89;100683.48;108240;1249;73174;-68
2023/08/19 04:28:01;;;;;;;11.80;7.20;;;;;;;32.59;42.93;100682.18;108403;1251;68721;-68
2023/08/19 04:30:28;;;;;;;10.90;6.70;;;;;;;32.78;42.77;100676.11;108330;1249;72627;-68
2023/08/19 04:32:58;;;;;;;11.80;7.20;;;;;;;33.18;41.87;100671.83;108304;1251;59505;-69
2023/08/19 04:35:30;;;;;;;10.20;7.20;;;;;;;33.39;41.56;100675.09;108410;1251;59789;-68
2023/08/19 04:37:57;;;;;;;9.80;6.40;;;;;;;33.62;41.23;100676.33;108296;1251;64250;-68
2023/08/19 04:40:25;;;;;;;8.80;6.80;;;;;;;34.11;40.06;100670.86;108311;1251;60233;-68
2023/08/19 04:42:52;;;;;;;9.20;6.80;;;;;;;34.36;39.45;100670.05;108266;1254;63707;-69
2023/08/19 04:45:21;;;;;;;9.30;6.90;;;;;;;34.45;39.20;100668.40;108264;1254;59390;-68
2023/08/19 04:47:49;;;;;;;11.80;6.90;;;;;;;34.68;38.64;100665.48;108221;1251;59653;-68
2023/08/19 04:50:17;;;;;;;14.10;7.00;;;;;;;35.02;38.24;100662.87;108271;1250;64114;-68
2023/08/19 04:52:44;;;;;;;11.30;6.90;;;;;;;35.32;37.81;100661.99;108295;1250;60140;-68
2023/08/19 04:55:14;;;;;;;21.60;7.70;;;;;;;35.83;36.86;100659.77;108319;1251;62427;-68
2023/08/19 04:57:42;;;;;;;12.00;6.30;;;;;;;36.02;36.43;100662.98;108367;1251;59624;-67
2023/08/19 05:00:12;;;;;;;11.90;7.80;;;;;;;36.01;36.08;100662.23;108425;1256;59771;-68
2023/08/19 05:02:41;;;;;;;11.30;7.20;;;;;;;35.90;35.83;100659.41;108293;1251;62885;-68
2023/08/19 05:05:08;;;;;;;11.40;7.60;;;;;;;35.86;35.94;100663.38;108273;1251;61477;-68
2023/08/19 05:07:36;;;;;;;11.80;7.30;;;;;;;35.89;35.99;100663.25;108241;1256;63731;-68
2023/08/19 05:10:04;;;;;;;14.00;7.30;;;;;;;35.93;35.81;100665.19;108336;1256;59527;-69
2023/08/19 05:12:31;;;;;;;10.70;7.50;;;;;;;35.99;35.66;100670.46;108393;1250;59468;-68
2023/08/19 05:14:59;;;;;;;12.60;7.50;;;;;;;36.05;35.42;100672.64;108404;1251;64134;-69
2023/08/19 05:17:27;;;;;;;15.50;8.20;;;;;;;36.00;35.52;100673.70;108369;1251;61368;-67
2023/08/19 05:19:55;;;;;;;15.30;7.90;;;;;;;35.97;35.57;100673.62;108396;1251;63685;-68
2023/08/19 05:22:23;;;;;;;13.30;7.40;;;;;;;36.05;35.65;100673.36;108268;1251;59508;-68
2023/08/19 05:24:50;;;;;;;12.70;7.30;;;;;;;36.09;35.60;100678.14;108351;1251;59500;-68
2023/08/19 05:27:17;;;;;;;11.00;7.50;;;;;;;36.30;35.43;100676.20;108308;1249;64266;-64
2023/08/19 05:29:45;;;;;;;10.50;7.40;;;;;;;36.46;35.04;100677.66;108332;1250;61371;-68
2023/08/19 05:32:12;;;;;;;13.30;6.50;;;;;;;36.71;34.50;100675.30;108397;1250;62739;-69
2023/08/19 05:34:40;;;;;;;13.20;7.20;;;;;;;37.02;34.30;100678.63;108410;1251;59636;-69
2023/08/19 05:37:09;;;;;;;24.10;7.80;;;;;;;37.37;33.99;100676.55;108505;1251;59713;-70
2023/08/19 05:39:37;;;;;;;8.70;6.30;;;;;;;37.64;33.45;100674.67;108328;1251;62911;-67
2023/08/19 05:42:04;;;;;;;12.40;7.00;;;;;;;38.21;32.92;100678.08;108423;1250;60098;-69
2023/08/19 05:44:32;;;;;;;10.40;6.20;;;;;;;38.65;32.13;100677.75;108371;1251;63819;-69
2023/08/19 05:46:59;;;;;;;14.40;6.90;;;;;;;38.93;31.43;100675.54;108384;1251;59586;-69
2023/08/19 05:49:27;;;;;;;10.50;7.10;;;;;;;38.91;31.34;100676.11;108349;1251;59349;-68
2023/08/19 05:51:55;;;;;;;10.40;7.00;;;;;;;38.78;31.55;100675.79;108343;1251;64623;-68
2023/08/19 05:54:22;;;;;;;10.30;6.30;;;;;;;38.87;31.48;100675.52;108357;1251;60108;-68
2023/08/19 05:56:49;;;;;;;9.30;6.30;;;;;;;39.24;30.67;100676.42;108327;1251;63907;-68
2023/08/19 05:59:17;;;;;;;11.00;6.40;;;;;;;39.43;30.43;100682.92;108335;1251;59528;-69
2023/08/19 06:01:44;;;;;;;9.80;6.30;;;;;;;39.55;30.39;100686.82;108383;1251;59751;-69
2023/08/19 06:04:12;;;;;;;12.70;6.30;;;;;;;39.85;29.80;100684.67;108346;1251;63849;-69
2023/08/19 06:06:39;;;;;;;10.80;6.50;;;;;;;39.95;30.12;100683.34;108248;1251;60292;-69
2023/08/19 06:09:07;;;;;;;14.70;6.60;;;;;;;40.06;29.93;100685.81;108348;1251;63758;-68
2023/08/19 06:11:46;;;;;;;10.90;6.10;;;;;;;40.37;29.08;100683.93;108330;1251;59736;-67
2023/08/19 06:14:13;;;;;;;9.30;6.50;;;;;;;40.38;28.96;100684.45;108403;1251;59607;-68
2023/08/19 06:16:42;;;;;;;8.90;6.30;;;;;;;40.99;28.46;100683.31;108315;1251;62977;-68
2023/08/19 06:19:09;;;;;;;13.50;6.50;;;;;;;41.47;27.88;100680.34;108375;1251;61818;-67
2023/08/19 06:21:40;;;;;;;20.80;7.00;;;;;;;41.24;27.91;100688.09;108321;1251;63919;-68
2023/08/19 06:24:07;;;;;;;10.70;6.10;;;;;;;41.58;27.66;100685.92;108244;1251;59489;-67
2023/08/19 06:26:35;;;;;;;10.60;6.30;;;;;;;41.53;27.64;100680.96;108335;1251;59382;-68
2023/08/19 06:29:03;;;;;;;10.70;5.90;;;;;;;41.52;27.59;100679.23;108194;1251;64123;-68
2023/08/19 06:31:31;;;;;;;11.70;6.30;;;;;;;41.71;27.31;100682.46;108233;1251;60677;-68
2023/08/19 06:33:59;;;;;;;12.90;6.50;;;;;;;41.91;27.01;100682.53;108322;1251;63774;-68
2023/08/19 06:36:28;;;;;;;9.90;5.70;;;;;;;41.92;27.04;100684.46;108297;1253;59763;-68
2023/08/19 06:39:28;;;;;;;8.70;5.80;;;;;;;42.20;26.74;100683.84;108322;1251;59516;-68
2023/08/19 06:42:01;;;;;;;8.30;6.10;;;;;;;42.25;26.77;100684.48;108271;1251;64140;-69
2023/08/19 06:44:32;;;;;;;11.40;5.90;;;;;;;42.18;26.61;100689.18;108265;1251;60247;-68
2023/08/19 06:47:01;;;;;;;12.60;6.00;;;;;;;42.10;26.83;100687.95;108278;1251;75119;-67
2023/08/19 06:49:29;;;;;;;8.20;6.00;;;;;;;42.23;26.91;100687.14;108259;1254;59549;-69
2023/08/19 06:51:57;;;;;;;8.80;5.30;;;;;;;42.39;26.69;100694.65;108304;1251;59614;-68
2023/08/19 06:54:24;;;;;;;8.50;5.20;;;;;;;42.62;26.46;100695.38;108331;1251;64185;-69
2023/08/19 06:57:09;;;;;;;10.30;5.40;;;;;;;43.03;26.06;100695.75;108288;1251;61506;-68
2023/08/19 06:59:38;;;;;;;6.70;5.00;;;;;;;44.15;24.95;100692.54;108275;1251;64291;-69
2023/08/19 07:02:07;;;;;;;6.80;4.80;;;;;;;44.26;24.49;100692.59;108181;1251;60313;-68
2023/08/19 07:04:35;;;;;;;12.60;5.10;;;;;;;44.48;24.08;100696.06;108144;1251;59165;-69
2023/08/19 07:07:04;;;;;;;11.20;4.80;;;;;;;44.50;23.88;100699.15;108230;1251;65034;-69
2023/08/19 07:09:33;;;;;;;9.80;5.00;;;;;;;44.45;23.93;100698.01;108333;1251;61321;-68
2023/08/19 07:12:02;;;;;;;7.90;5.60;;;;;;;44.40;23.96;100699.69;108342;1251;63726;-69
2023/08/19 07:14:30;;;;;;;8.20;4.90;;;;;;;44.32;24.05;100695.97;108197;1251;60333;-69
2023/08/19 07:17:02;;;;;;;8.40;5.20;;;;;;;44.30;24.19;100694.61;108238;1252;60348;-69
2023/08/19 07:19:32;;;;;;;11.70;5.40;;;;;;;43.88;24.37;100696.61;108372;1251;64213;-68
2023/08/19 07:22:00;;;;;;;6.50;5.30;;;;;;;43.67;24.67;100693.31;108392;1252;60264;-67
2023/08/19 07:24:27;;;;;;;7.90;5.10;;;;;;;43.77;24.42;100693.58;108352;1253;62467;-68
2023/08/19 07:26:55;;;;;;;7.80;5.30;;;;;;;43.38;24.62;100698.16;108330;1251;60392;-69
2023/08/19 07:29:22;;;;;;;11.20;5.00;;;;;;;43.06;25.16;100702.21;108336;1250;59499;-70
2023/08/19 07:31:50;;;;;;;7.30;5.40;;;;;;;43.53;24.88;100700.64;108329;1251;64193;-69
2023/08/19 07:34:17;;;;;;;9.30;4.90;;;;;;;44.03;24.16;100699.84;108351;1251;62626;-67
2023/08/19 07:36:45;;;;;;;5.80;4.40;;;;;;;44.41;24.05;100699.19;108392;1251;64012;-69
2023/08/19 07:39:13;;;;;;;13.90;6.10;;;;;;;44.77;23.76;100701.02;108442;1251;59173;-69
2023/08/19 07:41:41;;;;;;;8.30;5.30;;;;;;;44.68;23.55;100701.20;108661;1251;59156;-70
2023/08/19 07:44:08;;;;;;;8.90;5.50;;;;;;;44.63;23.58;100701.21;108795;1251;63616;-69
2023/08/19 07:46:35;;;;;;;11.40;5.60;;;;;;;44.63;23.23;100699.55;108868;1251;61561;-69
2023/08/19 07:49:03;;;;;;;7.40;4.90;;;;;;;44.63;22.87;100700.93;108607;1250;62902;-70
2023/08/19 07:51:30;;;;;;;14.20;5.30;;;;;;;44.48;23.28;100702.23;108392;1251;59132;-70
2023/08/19 07:53:58;;;;;;;8.30;4.90;;;;;;;44.28;23.27;100698.48;108366;1251;59232;-70
2023/08/19 07:56:25;;;;;;;9.40;5.10;;;;;;;44.29;23.05;100697.88;108563;1251;63995;-69
2023/08/19 07:58:53;;;;;;;8.70;4.90;;;;;;;44.39;22.69;100700.63;108372;1251;61363;-70
2023/08/19 08:01:20;;;;;;;11.00;4.80;;;;;;;44.31;23.12;100694.52;108331;1251;63756;-69
2023/08/19 08:03:48;;;;;;;8.10;4.90;;;;;;;44.51;23.09;100695.27;108294;1251;60322;-70
2023/08/19 08:06:16;;;;;;;11.60;5.10;;;;;;;44.74;22.77;100696.60;108339;1250;60371;-70
2023/08/19 08:08:43;;;;;;;9.70;5.40;;;;;;;45.14;22.00;100698.11;108313;1251;65192;-69
2023/08/19 08:11:10;;;;;;;10.40;5.30;;;;;;;45.49;21.76;100698.71;108223;1251;61455;-67
2023/08/19 08:13:38;;;;;;;8.40;4.80;;;;;;;45.24;21.80;100697.26;108290;1251;65863;-68
2023/08/19 08:16:05;;;;;;;10.80;5.20;;;;;;;45.26;21.89;100697.38;108321;1251;60452;-69
2023/08/19 08:18:33;;;;;;;14.50;5.70;;;;;;;45.39;21.94;100696.09;108287;1251;60302;-69
2023/08/19 08:21:02;;;;;;;9.10;5.40;;;;;;;45.24;21.81;100688.98;108253;1251;65451;-70
2023/08/19 08:23:31;;;;;;;9.40;5.60;;;;;;;45.31;22.33;100685.62;108287;1251;60446;-70
2023/08/19 08:26:04;;;;;;;7.90;5.70;;;;;;;44.84;22.49;100687.71;108260;1251;64149;-69
2023/08/19 08:28:31;;;;;;;9.90;5.70;;;;;;;44.34;22.53;100679.81;108293;1251;60407;-70
2023/08/19 08:30:59;;;;;;;7.10;4.90;;;;;;;44.06;22.99;100676.84;108324;1251;60316;-69
2023/08/19 08:33:26;;;;;;;14.20;5.20;;;;;;;44.23;23.02;100676.02;108386;1251;64961;-69
2023/08/19 08:35:53;;;;;;;13.20;5.00;;;;;;;44.56;22.39;100677.12;108464;1251;61304;-69
2023/08/19 08:38:21;;;;;;;9.70;5.10;;;;;;;44.58;21.86;100684.58;108286;1251;62466;-69
2023/08/19 08:40:50;;;;;;;8.80;4.40;;;;;;;44.78;21.49;100681.30;108320;1251;60338;-70
2023/08/19 08:43:17;;;;;;;9.60;5.60;;;;;;;45.15;21.22;100679.66;108401;1250;59217;-71
2023/08/19 08:45:47;;;;;;;8.30;4.50;;;;;;;44.96;21.02;100685.11;108330;1250;63664;-69
2023/08/19 08:48:16;;;;;;;8.00;4.60;;;;;;;45.27;20.94;100677.74;108314;1250;60331;-70
2023/08/19 08:50:43;;;;;;;9.20;4.40;;;;;;;45.47;21.05;100675.08;108253;1251;63675;-71
2023/08/19 08:53:12;;;;;;;11.60;4.50;;;;;;;45.51;20.60;100675.58;108320;1251;60408;-70
2023/08/19 08:55:40;;;;;;;6.40;4.40;;;;;;;45.94;20.03;100669.82;108286;1253;59545;-70
2023/08/19 08:58:07;;;;;;;9.20;4.90;;;;;;;46.29;20.16;100670.07;108390;1250;63735;-69
2023/08/19 09:00:37;;;;;;;9.50;4.80;;;;;;;46.60;19.49;100669.66;108305;1252;61376;-69
2023/08/19 09:03:05;;;;;;;;;;;;;;;46.41;19.76;100669.02;108307;1251;62880;-72
2023/08/19 09:05:33;;;;;;;5.60;4.40;;;;;;;45.86;20.03;100668.10;108288;1255;60161;-69
2023/08/19 09:08:01;;;;;;;9.70;5.00;;;;;;;45.55;20.65;100671.87;108313;1251;60286;-67
2023/08/19 09:10:28;;;;;;;11.60;4.70;;;;;;;45.06;21.08;100673.64;108280;1251;67207;-70
2023/08/19 09:12:57;;;;;;;8.30;4.70;;;;;;;44.81;21.44;100672.59;108085;1256;63937;-69
2023/08/19 09:15:28;;;;;;;9.90;4.60;;;;;;;44.97;21.26;100670.42;108387;1251;62413;-69
2023/08/19 09:17:57;;;;;;;12.20;5.00;;;;;;;45.05;20.86;100671.02;108252;1250;59472;-70
2023/08/19 09:20:25;;;;;;;12.40;4.70;;;;;;;45.19;20.81;100671.90;108381;1251;60315;-70
2023/08/19 09:23:06;;;;;;;8.10;4.10;;;;;;;45.20;20.11;100669.23;108335;1257;64862;-68
2023/08/19 09:25:37;;;;;;;8.30;4.50;;;;;;;44.85;20.27;100668.50;108374;1250;60435;-69
2023/08/19 09:28:06;;;;;;;7.90;4.50;;;;;;;44.86;20.32;100673.94;108315;1250;72760;-71
2023/08/19 09:30:35;;;;;;;14.70;4.40;;;;;;;44.36;20.75;100671.15;108342;1251;60565;-69
2023/08/19 09:33:02;;;;;;;6.70;4.30;;;;;;;43.80;21.44;100670.90;108303;1250;60315;-69
2023/08/19 09:35:38;;;;;;;8.30;4.40;;;;;;;43.56;21.42;100668.86;108352;1251;65048;-69
2023/08/19 09:38:24;;;;;;;9.20;4.80;;;;;;;43.76;21.34;100666.84;108346;1250;60440;-69
2023/08/19 09:41:06;;;;;;;13.00;4.60;;;;;;;44.10;21.00;100665.72;108376;1251;72800;-69
2023/08/19 09:43:40;;;;;;;21.60;4.70;;;;;;;44.23;20.85;100667.09;108317;1251;60383;-69
2023/08/19 09:46:08;;;;;;;5.40;3.70;;;;;;;44.17;20.67;100662.93;108368;1250;60254;-68
2023/08/19 09:48:36;;;;;;;14.10;4.70;;;;;;;44.45;20.56;100661.68;108387;1251;64956;-68
2023/08/19 09:51:03;;;;;;;6.70;4.40;;;;;;;44.50;20.50;100665.59;108369;1251;61487;-69
2023/08/19 09:53:31;;;;;;;8.90;4.40;;;;;;;43.86;20.94;100658.91;108349;1251;63802;-68
2023/08/19 09:55:58;;;;;;;9.20;4.30;;;;;;;43.76;21.23;100659.27;108406;1251;60504;-68
2023/08/19 09:58:26;;;;;;;8.40;4.40;;;;;;;43.72;21.36;100657.64;108359;1255;60424;-70
2023/08/19 10:00:53;;;;;;;10.30;4.40;;;;;;;43.93;20.91;100656.21;108354;1251;64887;-69
2023/08/19 10:03:21;;;;;;;13.60;4.70;;;;;;;44.11;20.68;100656.84;108384;1255;61495;-72
2023/08/19 10:05:54;;;;;;;9.70;4.70;;;;;;;43.90;20.70;100657.30;108310;1252;64039;-70
2023/08/19 10:08:23;;;;;;;7.10;4.10;;;;;;;43.30;21.23;100655.55;108259;1251;59693;-70
2023/08/19 10:10:50;;;;;;;11.30;4.00;;;;;;;43.04;21.35;100649.38;108358;1251;60316;-69
2023/08/19 10:13:18;;;;;;;8.60;4.40;;;;;;;43.08;21.43;100645.05;108345;1251;64911;-69
2023/08/19 10:15:45;;;;;;;11.50;4.20;;;;;;;43.04;21.89;100643.79;108297;1250;61480;-69
2023/08/19 10:18:17;;;;;;;17.40;5.00;;;;;;;43.17;21.91;100639.27;108329;1250;63790;-69
2023/08/19 10:20:45;;;;;;;;;;;;;;;43.21;21.92;100639.55;108379;1251;60569;-69
2023/08/19 10:23:13;;;;;;;9.00;4.30;;;;;;;43.11;21.86;100636.22;108282;1251;60382;-69
2023/08/19 10:25:41;;;;;;;7.60;4.40;;;;;;;42.76;21.99;100638.90;108227;1251;63685;-69
2023/08/19 10:28:13;;;;;;;7.60;4.60;;;;;;;42.68;22.11;100643.84;108260;1251;62004;-68
2023/08/19 10:30:40;;;;;;;8.30;4.50;;;;;;;42.72;22.25;100643.95;108330;1251;62550;-67
2023/08/19 10:33:28;;;;;;;20.20;4.60;;;;;;;42.75;22.25;100646.08;108325;1251;60423;-70
2023/08/19 10:36:02;;;;;;;11.10;4.60;;;;;;;42.44;22.52;100649.52;108304;1256;60313;-69
2023/08/19 10:38:43;;;;;;;8.00;4.80;;;;;;;42.04;22.85;100646.53;108308;1251;64982;-68
2023/08/19 10:41:35;;;;;;;11.00;4.30;;;;;;;42.08;22.70;100644.14;108337;1251;61391;-69
2023/08/19 10:44:04;;;;;;;9.00;4.70;;;;;;;42.21;22.80;100645.61;108283;1251;63871;-70
2023/08/19 10:46:38;;;;;;;11.90;4.20;;;;;;;42.18;22.79;100638.81;108260;1253;60291;-69
2023/08/19 10:49:14;;;;;;;6.40;4.20;;;;;;;42.35;22.56;100633.14;108358;1251;60392;-70
2023/08/19 10:52:00;;;;;;;7.70;4.40;;;;;;;42.72;22.59;100630.80;108298;1251;64809;-70
2023/08/19 10:54:38;;;;;;;10.00;4.50;;;;;;;43.02;21.84;100632.45;108363;1253;61504;-69
2023/08/19 10:57:23;;;;;;;7.70;4.00;;;;;;;42.96;20.97;100634.84;108127;1254;64810;-69
2023/08/19 10:59:58;;;;;;;7.00;4.00;;;;;;;42.76;20.82;100633.26;108301;1251;60402;-68
2023/08/19 11:02:27;;;;;;;9.70;4.10;;;;;;;42.68;21.25;100625.56;108341;1251;60537;-68
2023/08/19 11:04:57;;;;;;;7.50;4.60;;;;;;;42.85;21.45;100625.68;108381;1256;63920;-69
2023/08/19 11:07:25;;;;;;;15.80;5.30;;;;;;;43.18;21.19;100622.29;108323;1251;61450;-68
2023/08/19 11:09:54;;;;;;;10.20;4.20;;;;;;;43.09;21.52;100619.96;108379;1254;63765;-68
2023/08/19 11:12:22;;;;;;;6.70;4.40;;;;;;;43.03;21.39;100624.05;108305;1251;60322;-67
2023/08/19 11:14:55;;;;;;;10.60;4.30;;;;;;;42.81;21.43;100622.07;108336;1251;60431;-68
2023/08/19 11:17:27;;;;;;;10.60;4.40;;;;;;;42.39;21.81;100622.67;108288;1250;65101;-68
2023/08/19 11:19:55;;;;;;;8.50;4.00;;;;;;;42.08;22.15;100614.77;108378;1251;61451;-68